Time;durP1;ratioP1;P1;durP2;ratioP2;P2;SDS_P1;SDS_P2;PMS_P1;PMS_P2;Temp;Humidity;BMP_temperature;BMP_pressure;BME280_temperature;BME280_humidity;BME280_pressure;Samples;Min_cycle;Max_cycle;Signal;HPM_P1;HPM_P2
2022/11/16 00:01:13;;;;;;;8.02;6.38;;;10.70;99.90;;;;;;4967895;28;20094;-77
2022/11/16 00:03:40;;;;;;;11.77;7.80;;;11.10;99.90;;;;;;4944371;29;20285;-78
2022/11/16 00:06:07;;;;;;;11.02;6.70;;;11.10;99.90;;;;;;4947007;28;20035;-77
2022/11/16 00:08:43;;;;;;;9.13;6.13;;;10.70;99.90;;;;;;4954665;29;20471;-78
2022/11/16 00:11:14;;;;;;;10.88;7.18;;;10.90;99.90;;;;;;4950339;28;20026;-77
2022/11/16 00:13:42;;;;;;;11.52;7.65;;;10.90;99.90;;;;;;4942778;29;20131;-79
2022/11/16 00:16:17;;;;;;;9.23;6.57;;;11.20;99.90;;;;;;4944161;29;20046;-79
2022/11/16 00:18:43;;;;;;;7.85;6.35;;;11.40;99.90;;;;;;4927993;29;20031;-77
2022/11/16 00:21:10;;;;;;;7.75;5.93;;;11.50;99.90;;;;;;4934134;29;20106;-80
2022/11/16 00:23:39;;;;;;;9.23;7.18;;;10.90;99.90;;;;;;4946422;29;20071;-80
2022/11/16 00:26:07;;;;;;;11.65;7.65;;;10.90;99.90;;;;;;4932564;29;20027;-79
2022/11/16 00:28:35;;;;;;;10.65;7.90;;;11.60;99.90;;;;;;4966404;29;20070;-79
2022/11/16 00:31:05;;;;;;;9.57;7.85;;;10.70;99.90;;;;;;4955352;29;20035;-79
2022/11/16 00:33:31;;;;;;;10.85;7.75;;;10.80;99.90;;;;;;4946084;29;20035;-81
2022/11/16 00:36:00;;;;;;;9.80;7.70;;;10.70;99.90;;;;;;4947602;29;20103;-78
2022/11/16 00:38:26;;;;;;;10.20;6.55;;;10.90;99.90;;;;;;4934366;29;20031;-78
2022/11/16 00:40:52;;;;;;;8.02;6.43;;;10.80;99.90;;;;;;4934264;29;20114;-78
2022/11/16 00:43:18;;;;;;;8.75;7.03;;;11.40;99.90;;;;;;4936937;29;20067;-79
2022/11/16 00:45:44;;;;;;;8.05;6.30;;;11.40;99.90;;;;;;4946848;29;20043;-79
2022/11/16 00:48:10;;;;;;;10.50;7.43;;;11.40;99.90;;;;;;4952042;29;20105;-79
2022/11/16 00:50:36;;;;;;;12.18;9.25;;;11.00;99.90;;;;;;4949812;29;20321;-79
2022/11/16 00:53:06;;;;;;;8.95;6.88;;;12.60;99.90;;;;;;4943162;29;20036;-79
2022/11/16 00:55:32;;;;;;;9.98;7.47;;;11.10;99.90;;;;;;4933197;29;20050;-79
2022/11/16 00:57:58;;;;;;;10.75;8.40;;;11.50;99.90;;;;;;4949583;29;20054;-77
2022/11/16 01:00:27;;;;;;;16.58;10.82;;;11.60;99.90;;;;;;4917825;29;20101;-78
2022/11/16 01:02:53;;;;;;;10.23;8.45;;;10.90;99.90;;;;;;4944813;29;20058;-80
2022/11/16 01:05:22;;;;;;;10.38;8.25;;;10.80;99.90;;;;;;4933251;29;20225;-78
2022/11/16 01:07:51;;;;;;;11.43;8.63;;;10.80;99.90;;;;;;4949889;29;20035;-80
2022/11/16 01:10:22;;;;;;;8.18;6.55;;;11.00;99.90;;;;;;4933492;29;20320;-81
2022/11/16 01:12:52;;;;;;;12.50;8.52;;;11.00;99.90;;;;;;4961221;28;20058;-81
2022/11/16 01:15:24;;;;;;;13.13;9.50;;;10.80;99.90;;;;;;4957404;29;20222;-78
2022/11/16 01:17:51;;;;;;;11.65;8.95;;;10.80;99.90;;;;;;4949570;29;20202;-78
2022/11/16 01:20:20;;;;;;;10.95;8.25;;;11.70;99.90;;;;;;4949396;28;20043;-79
2022/11/16 01:22:46;;;;;;;14.13;10.68;;;11.00;99.90;;;;;;4965366;29;20039;-79
2022/11/16 01:25:13;;;;;;;11.18;8.63;;;10.80;99.90;;;;;;4966842;28;20031;-79
2022/11/16 01:27:42;;;;;;;12.43;8.85;;;10.80;99.90;;;;;;4950252;29;20070;-81
2022/11/16 01:30:11;;;;;;;13.77;10.60;;;10.70;99.90;;;;;;4965973;28;20023;-79
2022/11/16 01:32:37;;;;;;;10.93;7.88;;;10.80;99.90;;;;;;4965619;28;20509;-82
2022/11/16 01:35:06;;;;;;;16.80;11.05;;;11.40;99.90;;;;;;4950833;28;20032;-80
2022/11/16 01:37:32;;;;;;;10.57;7.72;;;11.80;99.90;;;;;;4933949;29;20069;-79
2022/11/16 01:39:58;;;;;;;18.52;12.73;;;10.90;99.90;;;;;;4948693;28;20039;-81
2022/11/16 01:42:28;;;;;;;14.10;10.93;;;11.90;99.90;;;;;;4949390;29;20035;-80
2022/11/16 01:45:22;;;;;;;15.48;11.98;;;11.30;99.90;;;;;;4962633;28;20031;-81
2022/11/16 01:47:47;;;;;;;10.65;8.50;;;11.90;99.90;;;;;;4949409;29;20238;-76
2022/11/16 01:50:17;;;;;;;10.43;9.13;;;11.20;99.90;;;;;;4983182;28;20035;-79
2022/11/16 01:52:47;;;;;;;12.70;9.75;;;11.20;99.90;;;;;;4964748;29;20043;-78
2022/11/16 01:55:14;;;;;;;10.90;8.70;;;11.20;99.90;;;;;;4966426;28;20078;-79
2022/11/16 01:57:42;;;;;;;11.57;8.82;;;11.10;99.90;;;;;;4948845;29;20082;-79
2022/11/16 02:00:10;;;;;;;12.07;9.07;;;11.70;99.90;;;;;;4966640;28;20062;-78
2022/11/16 02:02:36;;;;;;;14.38;10.38;;;11.10;99.90;;;;;;4932974;29;20046;-79
2022/11/16 02:05:03;;;;;;;12.75;10.15;;;11.80;99.90;;;;;;4933282;28;20066;-78
2022/11/16 02:10:49;;;;;;;16.60;11.55;;;11.90;99.90;;;;;;4952622;29;20046;-78
2022/11/16 02:13:50;;;;;;;12.63;9.90;;;11.80;99.90;;;;;;4950731;28;20475;-78
2022/11/16 02:16:54;;;;;;;21.95;10.45;;;11.70;99.90;;;;;;4959592;28;20078;-81
2022/11/16 02:19:35;;;;;;;13.48;10.73;;;11.60;99.90;;;;;;4967159;28;20113;-78
2022/11/16 02:22:22;;;;;;;11.98;8.43;;;11.40;99.90;;;;;;4951239;28;20066;-79
2022/11/16 02:25:13;;;;;;;12.82;9.00;;;11.40;99.90;;;;;;4964234;29;20039;-78
2022/11/16 02:28:13;;;;;;;12.25;9.73;;;12.00;99.90;;;;;;4957023;28;20050;-79
2022/11/16 02:30:43;;;;;;;10.30;7.47;;;11.80;99.90;;;;;;4964449;29;20033;-78
2022/11/16 02:33:15;;;;;;;9.68;6.60;;;11.30;99.90;;;;;;4966732;28;20066;-79
2022/11/16 02:35:40;;;;;;;10.40;6.63;;;12.00;99.90;;;;;;4948328;29;20039;-78
2022/11/16 02:38:25;;;;;;;12.18;9.65;;;11.90;99.90;;;;;;4965284;28;20047;-78
2022/11/16 02:40:56;;;;;;;13.27;9.77;;;11.00;99.90;;;;;;4950848;28;20109;-79
2022/11/16 02:43:31;;;;;;;10.60;7.95;;;11.90;99.90;;;;;;4963791;29;20051;-79
2022/11/16 02:46:03;;;;;;;12.38;8.50;;;11.80;99.90;;;;;;4964414;28;20059;-78
2022/11/16 02:48:35;;;;;;;18.60;12.95;;;11.40;99.90;;;;;;4959353;28;20325;-78
2022/11/16 02:51:02;;;;;;;15.93;10.82;;;12.10;99.90;;;;;;4950846;28;20441;-78
2022/11/16 02:53:35;;;;;;;14.00;8.82;;;11.80;99.90;;;;;;4963464;29;20114;-77
2022/11/16 02:56:01;;;;;;;16.73;11.73;;;11.00;99.90;;;;;;4964334;28;20363;-77
2022/11/16 02:58:28;;;;;;;17.40;12.88;;;11.20;99.90;;;;;;4946592;29;20102;-78
2022/11/16 03:01:02;;;;;;;13.45;8.38;;;11.10;99.90;;;;;;4947143;28;20039;-78
2022/11/16 03:03:54;;;;;;;9.88;7.15;;;11.90;99.90;;;;;;4962938;29;20043;-78
2022/11/16 03:06:30;;;;;;;14.23;10.10;;;11.00;99.90;;;;;;4946014;29;20051;-77
2022/11/16 03:09:12;;;;;;;15.18;11.23;;;11.20;99.90;;;;;;4947153;28;20121;-77
2022/11/16 03:12:02;;;;;;;12.23;9.73;;;12.20;99.90;;;;;;4946597;29;20042;-77
2022/11/16 03:14:35;;;;;;;13.73;10.15;;;11.30;99.90;;;;;;4940314;29;20042;-77
2022/11/16 03:17:04;;;;;;;13.27;9.45;;;11.80;99.90;;;;;;4948272;28;20047;-78
2022/11/16 03:19:39;;;;;;;12.50;8.60;;;12.00;99.90;;;;;;4948027;28;20065;-79
2022/11/16 03:22:19;;;;;;;13.48;8.50;;;11.70;99.90;;;;;;4966307;28;20035;-77
2022/11/16 03:24:45;;;;;;;11.00;7.40;;;10.80;99.90;;;;;;4966071;28;20038;-78
2022/11/16 03:27:35;;;;;;;14.63;10.30;;;11.80;99.90;;;;;;4966279;28;20081;-78
2022/11/16 03:30:22;;;;;;;18.63;12.52;;;10.80;99.90;;;;;;4961872;28;20043;-78
2022/11/16 03:32:56;;;;;;;15.35;11.02;;;10.90;99.90;;;;;;4950192;28;20034;-78
2022/11/16 03:35:26;;;;;;;14.02;9.25;;;11.20;99.90;;;;;;4965809;28;20038;-78
2022/11/16 03:37:53;;;;;;;11.60;8.20;;;11.10;99.90;;;;;;4962773;29;20098;-77
2022/11/16 03:40:21;;;;;;;14.25;8.48;;;11.70;99.90;;;;;;4943655;29;20258;-77
2022/11/16 03:42:51;;;;;;;13.40;8.73;;;11.00;99.90;;;;;;4946395;29;20094;-78
2022/11/16 03:45:18;;;;;;;19.30;13.13;;;11.20;99.90;;;;;;4962829;29;20102;-77
2022/11/16 03:47:44;;;;;;;13.05;9.57;;;10.90;99.90;;;;;;4962774;29;20298;-77
2022/11/16 03:50:10;;;;;;;10.73;8.25;;;11.10;99.90;;;;;;4938172;28;20041;-79
2022/11/16 03:52:36;;;;;;;15.88;11.88;;;10.80;99.90;;;;;;4958176;29;20108;-78
2022/11/16 03:55:03;;;;;;;13.88;11.80;;;11.60;99.90;;;;;;4957983;28;20034;-78
2022/11/16 03:57:31;;;;;;;13.48;10.10;;;11.60;99.90;;;;;;4933537;28;20105;-78
2022/11/16 03:59:56;;;;;;;15.20;11.35;;;10.80;99.90;;;;;;4946697;28;20073;-78
2022/11/16 04:02:22;;;;;;;13.30;8.70;;;11.90;99.90;;;;;;4933448;28;20047;-77
2022/11/16 04:24:31;;;;;;;14.73;9.25;;;11.70;99.90;;;;;;4946169;29;20047;-77
2022/11/16 04:29:47;;;;;;;10.27;7.13;;;11.60;99.90;;;;;;4922701;29;20032;-77
2022/11/16 04:37:53;;;;;;;15.57;10.32;;;11.10;99.90;;;;;;4969290;28;20040;-78
2022/11/16 04:40:22;;;;;;;12.98;9.63;;;10.50;99.90;;;;;;4944453;29;20046;-77
2022/11/16 04:42:58;;;;;;;11.57;9.50;;;10.70;99.90;;;;;;4961419;29;20038;-76
2022/11/16 04:48:10;;;;;;;14.27;10.00;;;11.20;99.90;;;;;;4962505;29;20039;-79
2022/11/16 04:50:36;;;;;;;12.57;8.82;;;10.70;99.90;;;;;;4928254;29;20031;-79
2022/11/16 04:53:03;;;;;;;10.70;7.72;;;11.60;99.90;;;;;;4928361;29;20044;-80
2022/11/16 04:55:28;;;;;;;11.00;7.35;;;11.20;99.90;;;;;;4955790;29;20050;-79
2022/11/16 04:57:54;;;;;;;9.95;8.02;;;11.60;99.90;;;;;;4946482;29;20074;-79
2022/11/16 05:00:20;;;;;;;12.55;9.45;;;11.60;99.90;;;;;;4938682;29;20086;-81
2022/11/16 05:02:48;;;;;;;15.73;11.10;;;11.60;99.90;;;;;;4943553;29;20258;-80
2022/11/16 05:05:14;;;;;;;15.65;9.70;;;11.70;99.90;;;;;;4964400;28;20357;-79
2022/11/16 05:07:40;;;;;;;12.90;10.05;;;11.40;99.90;;;;;;4918260;29;20078;-81
2022/11/16 05:10:06;;;;;;;15.93;10.60;;;10.80;99.90;;;;;;4948131;29;20363;-78
2022/11/16 05:12:33;;;;;;;18.80;12.63;;;11.10;99.90;;;;;;4942005;29;20070;-77
2022/11/16 05:14:58;;;;;;;14.38;11.48;;;11.70;99.90;;;;;;4981273;28;20059;-79
2022/11/16 05:17:25;;;;;;;12.80;9.20;;;11.30;99.90;;;;;;4958203;29;20043;-79
2022/11/16 05:22:35;;;;;;;15.05;10.77;;;10.80;99.90;;;;;;4960976;29;20051;-79
2022/11/16 05:25:02;;;;;;;11.48;7.97;;;11.70;99.90;;;;;;4964202;28;20043;-77
2022/11/16 05:27:28;;;;;;;12.43;7.55;;;11.60;99.90;;;;;;4957927;29;20265;-79
2022/11/16 05:29:54;;;;;;;12.00;9.27;;;10.80;99.90;;;;;;4949001;29;20043;-80
2022/11/16 05:32:21;;;;;;;12.70;9.43;;;11.80;99.90;;;;;;4956601;28;20079;-80
2022/11/16 05:34:46;;;;;;;12.40;7.88;;;11.60;99.90;;;;;;4948612;29;20047;-76
2022/11/16 05:37:13;;;;;;;11.40;7.55;;;11.10;99.90;;;;;;4965088;29;20035;-80
2022/11/16 05:39:39;;;;;;;13.80;9.77;;;11.50;99.90;;;;;;4943556;29;20097;-80
2022/11/16 05:42:05;;;;;;;12.60;10.43;;;10.90;99.90;;;;;;4965284;29;20047;-80
2022/11/16 05:44:34;;;;;;;17.25;12.02;;;11.60;99.90;;;;;;4946527;29;20034;-79
2022/11/16 05:46:59;;;;;;;11.18;7.22;;;11.50;99.90;;;;;;4931072;29;20031;-79
2022/11/16 05:49:25;;;;;;;11.77;8.95;;;10.80;99.90;;;;;;4942163;29;20222;-79
2022/11/16 05:51:52;;;;;;;12.82;9.75;;;10.90;99.90;;;;;;4964985;29;20250;-78
2022/11/16 05:54:20;;;;;;;17.23;10.55;;;11.00;99.90;;;;;;4964313;29;20035;-78
2022/11/16 05:56:48;;;;;;;11.27;8.27;;;10.90;99.90;;;;;;4948282;29;20055;-79
2022/11/16 05:59:18;;;;;;;16.67;10.85;;;11.20;99.90;;;;;;4948945;29;20047;-79
2022/11/16 06:01:44;;;;;;;19.63;12.88;;;11.10;99.90;;;;;;4943667;29;20043;-77
2022/11/16 06:04:10;;;;;;;15.93;11.15;;;10.70;99.90;;;;;;4946348;29;20149;-78
2022/11/16 06:06:36;;;;;;;16.42;11.18;;;11.70;99.90;;;;;;4957998;29;20038;-77
2022/11/16 06:09:02;;;;;;;17.05;12.75;;;11.70;99.90;;;;;;4946043;29;20031;-77
2022/11/16 06:11:28;;;;;;;14.73;10.38;;;11.00;99.90;;;;;;4922374;29;20042;-78
2022/11/16 06:13:54;;;;;;;17.95;13.32;;;11.40;99.90;;;;;;4956756;28;20055;-75
2022/11/16 06:16:20;;;;;;;18.98;13.02;;;11.70;99.90;;;;;;4928119;29;20114;-79
2022/11/16 06:18:46;;;;;;;15.73;11.25;;;11.70;99.90;;;;;;4945987;29;20137;-78
2022/11/16 06:21:14;;;;;;;14.80;10.65;;;11.70;99.90;;;;;;4963485;28;20098;-78
2022/11/16 06:23:41;;;;;;;13.70;10.55;;;11.80;99.90;;;;;;4954911;29;20028;-81
2022/11/16 06:26:08;;;;;;;24.15;15.65;;;11.20;99.90;;;;;;4962512;29;20044;-81
2022/11/16 06:28:34;;;;;;;18.88;13.35;;;11.50;99.90;;;;;;4942145;29;20050;-79
2022/11/16 06:31:01;;;;;;;20.45;14.63;;;11.30;99.90;;;;;;4948463;29;20031;-78
2022/11/16 06:33:26;;;;;;;20.83;13.40;;;12.10;99.90;;;;;;4916587;29;20332;-80
2022/11/16 06:35:52;;;;;;;15.68;11.70;;;11.80;99.90;;;;;;4935337;29;20106;-79
2022/11/16 06:38:18;;;;;;;15.73;10.98;;;11.80;99.90;;;;;;4962948;28;20058;-78
2022/11/16 06:40:58;;;;;;;12.27;9.80;;;12.00;99.90;;;;;;4963023;29;20039;-78
2022/11/16 06:43:27;;;;;;;14.95;10.50;;;11.30;99.90;;;;;;4945874;29;20036;-78
2022/11/16 06:45:57;;;;;;;13.00;9.63;;;11.80;99.90;;;;;;4929618;29;20064;-78
2022/11/16 06:48:23;;;;;;;20.73;14.73;;;11.70;99.90;;;;;;4959557;29;20039;-78
2022/11/16 06:50:50;;;;;;;19.90;14.50;;;11.00;99.90;;;;;;4961496;29;20042;-79
2022/11/16 06:53:17;;;;;;;14.73;11.40;;;10.90;99.90;;;;;;4931897;29;20039;-79
2022/11/16 06:55:42;;;;;;;18.50;12.15;;;11.20;99.90;;;;;;4925700;29;20106;-79
2022/11/16 06:58:08;;;;;;;16.15;11.25;;;12.10;99.90;;;;;;4947585;29;20031;-79
2022/11/16 07:05:37;;;;;;;;;;;;;;;;;;;;;
2022/11/16 07:08:03;;;;;;;19.58;14.20;;;12.50;99.90;;;;;;4888643;29;20043;-77
2022/11/16 07:10:28;;;;;;;18.00;13.05;;;11.60;99.90;;;;;;4920207;29;20051;-78
2022/11/16 07:12:55;;;;;;;16.67;11.23;;;;;;;;;;4904675;29;20079;-79
2022/11/16 07:19:35;;;;;;;16.55;11.43;;;11.60;99.90;;;;;;4751775;30;20044;-80
2022/11/16 07:22:26;;;;;;;18.38;13.38;;;12.10;99.90;;;;;;4749148;29;20344;-79
2022/11/16 07:24:52;;;;;;;23.90;14.88;;;11.10;99.90;;;;;;4833672;29;20110;-81
2022/11/16 07:27:20;;;;;;;24.58;15.55;;;11.60;99.90;;;;;;4898252;29;20053;-80
2022/11/16 07:29:46;;;;;;;28.63;15.90;;;11.40;99.90;;;;;;4906184;29;20126;-81
2022/11/16 07:32:12;;;;;;;22.65;15.10;;;10.90;99.90;;;;;;4957542;29;20035;-79
2022/11/16 07:34:37;;;;;;;21.70;13.98;;;11.90;99.90;;;;;;4948980;28;20046;-80
2022/11/16 07:37:03;;;;;;;24.02;15.10;;;11.00;99.90;;;;;;4930611;29;20192;-83
2022/11/16 07:39:29;;;;;;;19.58;14.00;;;11.80;99.90;;;;;;4924344;29;20054;-81
2022/11/16 07:41:54;;;;;;;19.02;12.75;;;11.20;99.90;;;;;;4930855;29;20147;-82
2022/11/16 07:44:23;;;;;;;19.00;13.00;;;10.70;99.90;;;;;;4956105;28;20533;-81
2022/11/16 07:46:52;;;;;;;18.63;13.13;;;11.40;99.90;;;;;;4944626;29;20027;-81
2022/11/16 07:49:18;;;;;;;15.98;11.32;;;11.00;99.90;;;;;;4962785;28;20081;-81
2022/11/16 07:51:44;;;;;;;22.88;13.93;;;;;;;;;;4946820;29;20294;-82
2022/11/16 07:54:17;;;;;;;18.10;12.45;;;11.10;99.90;;;;;;4955363;28;20109;-80
2022/11/16 07:57:12;;;;;;;17.17;11.35;;;11.60;99.90;;;;;;4953548;28;20053;-80
2022/11/16 07:59:53;;;;;;;14.65;10.40;;;11.90;99.90;;;;;;4934465;29;20050;-81
2022/11/16 08:02:22;;;;;;;13.07;9.60;;;12.50;99.90;;;;;;4959706;28;20046;-78
2022/11/16 08:04:53;;;;;;;14.95;10.43;;;9.70;99.90;;;;;;4955158;29;20102;-80
2022/11/16 08:07:22;;;;;;;18.05;11.73;;;11.60;99.90;;;;;;4946135;29;20043;-82
2022/11/16 08:09:50;;;;;;;15.75;11.05;;;11.50;99.90;;;;;;4960142;28;20058;-81
2022/11/16 08:12:29;;;;;;;20.45;12.65;;;10.90;99.90;;;;;;4932780;29;20067;-80
2022/11/16 08:16:06;;;;;;;16.08;11.73;;;11.20;99.90;;;;;;4928112;29;20336;-79
2022/11/16 08:19:18;;;;;;;14.27;10.85;;;11.60;99.90;;;;;;4905332;29;20047;-79
2022/11/16 08:21:54;;;;;;;;;;;;;;;;;;;;;
2022/11/16 08:24:28;;;;;;;17.60;12.35;;;11.10;99.90;;;;;;4943928;29;20066;-80
2022/11/16 08:27:04;;;;;;;17.52;12.48;;;;;;;;;;4915467;29;20047;-80
2022/11/16 08:29:29;;;;;;;22.83;15.15;;;11.20;99.90;;;;;;4934609;28;20031;-78
2022/11/16 08:31:55;;;;;;;18.48;12.68;;;;;;;;;;4942971;29;20428;-81
2022/11/16 08:34:24;;;;;;;16.83;11.68;;;11.80;99.90;;;;;;4949336;29;20046;-82
2022/11/16 08:36:49;;;;;;;16.15;11.60;;;11.60;99.90;;;;;;4913901;29;20045;-79
2022/11/16 08:39:15;;;;;;;19.65;13.90;;;12.50;99.90;;;;;;4916637;29;20074;-83
2022/11/16 08:41:43;;;;;;;22.70;15.20;;;11.10;99.90;;;;;;4914797;29;20039;-82
2022/11/16 08:44:09;;;;;;;23.15;14.73;;;11.60;99.90;;;;;;4931088;29;20034;-77
2022/11/16 08:46:38;;;;;;;23.40;15.38;;;11.60;99.90;;;;;;4915259;29;20041;-79
2022/11/16 08:49:49;;;;;;;16.85;11.63;;;11.00;99.90;;;;;;4948905;29;20031;-80
2022/11/16 08:52:15;;;;;;;23.08;14.45;;;13.10;99.90;;;;;;4900390;29;20086;-79
2022/11/16 08:59:12;;;;;;;18.73;12.63;;;9.30;99.90;;;;;;4870939;29;20049;-82
2022/11/16 09:01:41;;;;;;;16.40;11.07;;;12.40;99.90;;;;;;4861026;29;20083;-77
2022/11/16 09:08:09;;;;;;;;;;;;;;;;;;;;;
2022/11/16 09:10:54;;;;;;;14.63;11.50;;;11.10;99.90;;;;;;4837876;29;20034;-79
2022/11/16 09:13:20;;;;;;;7.45;5.72;;;11.80;99.90;;;;;;4827316;29;20101;-81
2022/11/16 09:15:46;;;;;;;15.15;11.38;;;11.10;99.90;;;;;;4860431;29;20117;-80
2022/11/16 09:18:11;;;;;;;12.63;9.80;;;10.90;99.90;;;;;;4915946;28;20045;-81
2022/11/16 09:20:42;;;;;;;14.90;11.75;;;11.50;99.90;;;;;;4938788;28;20035;-79
2022/11/16 09:23:07;;;;;;;10.38;8.05;;;11.60;99.90;;;;;;4966901;28;20073;-79
2022/11/16 09:25:35;;;;;;;10.95;8.75;;;11.70;99.90;;;;;;4962422;28;20022;-80
2022/11/16 09:28:01;;;;;;;17.88;12.68;;;11.30;99.90;;;;;;4939947;28;20281;-78
2022/11/16 09:30:27;;;;;;;15.35;10.80;;;11.90;99.90;;;;;;4948013;28;20019;-76
2022/11/16 09:33:20;;;;;;;16.85;12.70;;;11.50;99.90;;;;;;4951323;28;20045;-79
2022/11/16 09:35:45;;;;;;;20.23;12.85;;;12.10;99.90;;;;;;4954883;28;20222;-80
2022/11/16 09:38:12;;;;;;;20.73;13.80;;;12.00;99.90;;;;;;4965235;28;20035;-79
2022/11/16 09:40:40;;;;;;;19.73;14.35;;;12.90;99.90;;;;;;4944017;28;20051;-77
2022/11/16 09:43:25;;;;;;;19.85;14.50;;;11.20;99.90;;;;;;4950196;28;20074;-80
2022/11/16 09:46:21;;;;;;;21.58;15.18;;;12.00;99.90;;;;;;4965519;28;20030;-78
2022/11/16 09:48:48;;;;;;;;;;;11.10;99.90;;;;;;4963246;28;20108;-81
2022/11/16 09:51:19;;;;;;;17.35;14.32;;;12.00;99.90;;;;;;4949964;28;20335;-82
2022/11/16 09:54:21;;;;;;;20.02;15.00;;;12.50;99.90;;;;;;4945654;29;20255;-83
2022/11/16 09:57:11;;;;;;;20.33;15.05;;;13.30;99.90;;;;;;4968703;28;20047;-80
2022/11/16 09:59:44;;;;;;;20.48;15.50;;;9.30;99.90;;;;;;4961545;28;20066;-80
2022/11/16 10:02:44;;;;;;;23.42;15.13;;;11.60;99.90;;;;;;4948378;28;20050;-81
2022/11/16 10:05:28;;;;;;;17.48;14.15;;;11.60;99.90;;;;;;4952998;28;20062;-82
2022/11/16 10:08:03;;;;;;;17.60;13.20;;;9.80;99.90;;;;;;4963039;28;20433;-78
2022/11/16 10:10:45;;;;;;;20.42;16.02;;;11.90;99.90;;;;;;4947467;28;20215;-81
2022/11/16 10:13:22;;;;;;;22.50;16.80;;;11.50;99.90;;;;;;4946367;29;20559;-81
2022/11/16 10:20:32;;;;;;;25.75;17.88;;;11.90;99.90;;;;;;4879376;29;20119;-79
2022/11/16 10:23:22;;;;;;;26.13;18.33;;;12.60;99.90;;;;;;4939906;28;20225;-83
2022/11/16 10:26:11;;;;;;;27.30;17.30;;;12.60;99.90;;;;;;4941103;28;20063;-78
2022/11/16 10:29:00;;;;;;;23.27;17.58;;;12.50;99.90;;;;;;4937579;28;20055;-81
2022/11/16 10:32:03;;;;;;;27.13;18.25;;;11.80;99.90;;;;;;4957314;29;20098;-82
2022/11/16 10:34:41;;;;;;;21.75;15.50;;;11.70;99.90;;;;;;4962281;28;20049;-82
2022/11/16 10:37:12;;;;;;;26.42;19.65;;;14.80;99.90;;;;;;4936998;28;20031;-79
2022/11/16 10:39:41;;;;;;;30.48;21.52;;;12.00;99.90;;;;;;4950988;29;20023;-83
2022/11/16 10:42:21;;;;;;;26.17;19.15;;;12.70;99.90;;;;;;4944923;28;20102;-79
2022/11/16 10:45:03;;;;;;;27.92;19.65;;;11.80;99.90;;;;;;4941021;28;20195;-80
2022/11/16 10:47:41;;;;;;;26.35;19.38;;;12.40;99.90;;;;;;4942087;28;20035;-81
2022/11/16 10:50:31;;;;;;;22.45;16.90;;;12.50;99.90;;;;;;4939021;28;20222;-83
2022/11/16 10:52:58;;;;;;;25.77;18.70;;;12.10;99.90;;;;;;4943699;28;20042;-82
2022/11/16 10:55:24;;;;;;;25.73;19.27;;;12.60;99.90;;;;;;4967973;28;20043;-79
2022/11/16 11:02:38;;;;;;;26.45;19.48;;;12.20;99.90;;;;;;4803402;29;20043;-78
2022/11/16 11:05:17;;;;;;;20.38;16.92;;;12.30;99.90;;;;;;4941221;29;20027;-78
2022/11/16 11:08:40;;;;;;;24.80;18.38;;;13.90;99.90;;;;;;4940837;29;20035;-81
2022/11/16 11:14:14;;;;;;;23.27;15.73;;;13.00;99.90;;;;;;4965142;28;20043;-80
2022/11/16 11:16:42;;;;;;;20.52;15.70;;;12.20;99.90;;;;;;4946906;29;20047;-80
2022/11/16 11:19:27;;;;;;;20.02;12.52;;;13.20;99.90;;;;;;4950735;28;20241;-79
2022/11/16 11:21:59;;;;;;;19.75;14.80;;;12.40;99.90;;;;;;4944455;28;20039;-79
2022/11/16 11:24:45;;;;;;;20.67;15.13;;;12.20;99.90;;;;;;4945289;28;20058;-83
2022/11/16 11:27:11;;;;;;;23.10;15.52;;;12.20;99.90;;;;;;4948910;28;20034;-78
2022/11/16 11:29:54;;;;;;;18.95;14.65;;;12.70;99.90;;;;;;4945570;29;20078;-78
2022/11/16 11:32:33;;;;;;;22.58;14.77;;;13.20;99.90;;;;;;4942462;28;20030;-78
2022/11/16 11:35:00;;;;;;;18.20;13.73;;;12.80;99.90;;;;;;4943377;28;20047;-75
2022/11/16 11:37:36;;;;;;;18.02;12.35;;;13.10;99.90;;;;;;4942885;28;20049;-78
2022/11/16 11:44:02;;;;;;;17.98;13.10;;;11.40;99.90;;;;;;4936880;29;20047;-79
2022/11/16 11:46:32;;;;;;;18.25;11.82;;;12.10;99.90;;;;;;4971678;28;20035;-81
2022/11/16 11:49:08;;;;;;;17.55;12.43;;;11.50;99.90;;;;;;4944268;29;20039;-77
2022/11/16 11:51:41;;;;;;;13.70;10.55;;;12.20;99.90;;;;;;4951853;29;20078;-79
2022/11/16 11:54:25;;;;;;;15.35;11.77;;;11.90;99.90;;;;;;4942935;28;20027;-77
2022/11/16 11:56:51;;;;;;;19.55;11.55;;;12.50;99.90;;;;;;4967545;28;20081;-76
2022/11/16 11:59:23;;;;;;;15.15;11.68;;;12.70;99.90;;;;;;4935409;28;20305;-76
2022/11/16 12:02:30;;;;;;;13.98;11.57;;;11.80;99.90;;;;;;4962527;28;20217;-76
2022/11/16 12:05:35;;;;;;;14.80;10.52;;;12.50;99.90;;;;;;4945147;28;20035;-77
2022/11/16 12:08:24;;;;;;;13.95;9.60;;;11.80;99.90;;;;;;4950356;28;20065;-76
2022/11/16 12:11:04;;;;;;;11.73;7.80;;;12.70;99.90;;;;;;4959950;29;20035;-82
2022/11/16 12:13:49;;;;;;;;;;;;;;;;;;;;;
2022/11/16 12:16:21;;;;;;;;;;;11.80;99.90;;;;;;4971018;28;20502;-80
2022/11/16 12:19:45;;;;;;;10.75;7.82;;;12.20;99.90;;;;;;4965661;28;19922;-82
2022/11/16 12:22:38;;;;;;;8.93;7.00;;;11.70;99.90;;;;;;4910440;29;20040;-76
2022/11/16 12:25:31;;;;;;;12.15;7.90;;;11.80;99.90;;;;;;4911718;29;20091;-81
2022/11/16 12:28:06;;;;;;;8.15;5.82;;;11.90;99.90;;;;;;4909631;29;20044;-79
2022/11/16 12:30:38;;;;;;;8.82;5.82;;;12.20;99.90;;;;;;4902850;29;20023;-76
2022/11/16 12:33:14;;;;;;;26.35;6.10;;;12.20;99.90;;;;;;4928572;28;20094;-78
2022/11/16 12:35:52;;;;;;;10.10;5.13;;;12.10;99.90;;;;;;4971058;28;20707;-81
2022/11/16 12:38:47;;;;;;;12.68;5.63;;;12.10;99.90;;;;;;4981328;28;20110;-75
2022/11/16 12:42:08;;;;;;;8.32;4.97;;;11.90;99.90;;;;;;4966160;28;20031;-79
2022/11/16 12:44:55;;;;;;;12.73;5.32;;;12.20;99.90;;;;;;4964678;28;20392;-78
2022/11/16 12:47:24;;;;;;;10.07;4.47;;;11.80;99.90;;;;;;4964738;28;20050;-77
2022/11/16 12:50:03;;;;;;;10.40;4.63;;;12.10;99.90;;;;;;4964902;28;20270;-77
2022/11/16 12:53:04;;;;;;;9.65;5.00;;;12.00;99.90;;;;;;4959161;29;20041;-78
2022/11/16 13:00:00;;;;;;;7.28;3.58;;;12.60;99.90;;;;;;4889699;29;20115;-76
2022/11/16 13:02:56;;;;;;;8.13;3.55;;;13.40;99.90;;;;;;4903812;29;20252;-76
2022/11/16 13:05:27;;;;;;;5.63;3.33;;;12.70;99.90;;;;;;4985453;28;20049;-79
2022/11/16 13:08:02;;;;;;;4.82;3.45;;;12.00;99.90;;;;;;4967734;28;20118;-78
2022/11/16 13:10:32;;;;;;;4.97;2.85;;;12.20;99.90;;;;;;4950773;29;20102;-78
2022/11/16 13:13:20;;;;;;;6.28;3.13;;;12.10;99.90;;;;;;4950787;28;20061;-82
2022/11/16 13:16:01;;;;;;;5.35;2.85;;;12.60;99.90;;;;;;4909729;29;20048;-80
2022/11/16 13:18:29;;;;;;;5.30;2.97;;;12.00;99.90;;;;;;4912049;29;20103;-77
2022/11/16 13:21:14;;;;;;;4.75;2.83;;;13.90;99.90;;;;;;4892374;29;20058;-80
2022/11/16 13:23:57;;;;;;;8.00;2.78;;;11.80;99.90;;;;;;4905437;29;20055;-80
2022/11/16 13:27:10;;;;;;;8.40;3.35;;;11.90;99.90;;;;;;4903795;29;20035;-76
2022/11/16 13:33:51;;;;;;;7.32;2.50;;;11.90;99.90;;;;;;4906585;29;20047;-78
2022/11/16 13:36:35;;;;;;;6.78;2.50;;;12.00;99.90;;;;;;4903572;29;20048;-79
2022/11/16 13:39:10;;;;;;;6.57;2.70;;;12.00;99.90;;;;;;4907109;29;20132;-81
2022/11/16 13:41:41;;;;;;;5.70;2.95;;;13.90;99.90;;;;;;4890863;29;20127;-79
2022/11/16 13:44:16;;;;;;;5.15;3.10;;;9.90;99.90;;;;;;4891649;29;20096;-78
2022/11/16 13:46:51;;;;;;;10.02;3.58;;;11.70;99.90;;;;;;4931683;28;20074;-80
2022/11/16 13:49:30;;;;;;;5.95;2.50;;;11.80;99.90;;;;;;4949616;28;20069;-79
2022/11/16 13:52:24;;;;;;;5.40;2.72;;;11.90;99.90;;;;;;4967158;28;20347;-77
2022/11/16 13:55:00;;;;;;;5.85;2.30;;;11.70;99.90;;;;;;4972216;28;20139;-78
2022/11/16 13:57:31;;;;;;;6.25;2.22;;;12.20;99.90;;;;;;4958489;28;20035;-77
2022/11/16 14:00:07;;;;;;;10.65;2.47;;;11.60;99.90;;;;;;4961852;28;20211;-79
2022/11/16 14:02:34;;;;;;;6.13;3.03;;;11.80;99.90;;;;;;4959835;28;20272;-81
2022/11/16 14:05:38;;;;;;;6.05;2.45;;;11.80;99.90;;;;;;4962254;28;20027;-81
2022/11/16 14:08:19;;;;;;;7.55;2.25;;;11.70;99.90;;;;;;4957834;28;20043;-81
2022/11/16 14:10:48;;;;;;;7.57;2.08;;;11.70;99.90;;;;;;4961483;29;20039;-81
2022/11/16 14:13:36;;;;;;;5.18;1.95;;;9.90;99.90;;;;;;4965132;28;20069;-80
2022/11/16 14:16:14;;;;;;;6.65;2.40;;;10.20;99.90;;;;;;4942564;29;20055;-81
2022/11/16 14:18:41;;;;;;;9.10;2.33;;;11.60;99.90;;;;;;4942200;29;20031;-81
2022/11/16 14:21:30;;;;;;;4.50;1.90;;;11.70;99.90;;;;;;4930574;29;20122;-80
2022/11/16 14:24:17;;;;;;;10.15;2.20;;;11.60;99.90;;;;;;4958418;29;20102;-80
2022/11/16 14:26:52;;;;;;;12.27;3.35;;;11.80;99.90;;;;;;4952391;29;20047;-80
2022/11/16 14:30:02;;;;;;;7.22;2.33;;;11.50;99.90;;;;;;4938192;28;20035;-81
2022/11/16 14:32:34;;;;;;;10.27;2.33;;;11.50;99.90;;;;;;4928554;29;20237;-81
2022/11/16 14:35:03;;;;;;;5.07;2.17;;;10.30;99.90;;;;;;4945117;29;20043;-82